sensor_id;sensor_type;location;lat;lon;timestamp;P1;durP1;ratioP1;P2;durP2;ratioP2
11962;SDS011;62678;52.130;5.584;2023-03-13T00:00:02;37.00;;;6.88;;
11962;SDS011;62678;52.130;5.584;2023-03-13T00:02:30;39.05;;;7.18;;
11962;SDS011;62678;52.130;5.584;2023-03-13T00:04:57;35.92;;;6.88;;
11962;SDS011;62678;52.130;5.584;2023-03-13T00:07:24;34.72;;;7.05;;
11962;SDS011;62678;52.130;5.584;2023-03-13T00:09:50;36.08;;;7.05;;
11962;SDS011;62678;52.130;5.584;2023-03-13T00:12:17;29.77;;;6.68;;
11962;SDS011;62678;52.130;5.584;2023-03-13T00:14:44;32.20;;;7.53;;
11962;SDS011;62678;52.130;5.584;2023-03-13T00:17:12;29.27;;;6.30;;
11962;SDS011;62678;52.130;5.584;2023-03-13T00:19:39;32.75;;;6.25;;
11962;SDS011;62678;52.130;5.584;2023-03-13T00:22:06;31.45;;;6.47;;
11962;SDS011;62678;52.130;5.584;2023-03-13T00:24:33;36.17;;;7.00;;
11962;SDS011;62678;52.130;5.584;2023-03-13T00:27:00;31.05;;;6.22;;
11962;SDS011;62678;52.130;5.584;2023-03-13T00:29:29;28.42;;;6.30;;
11962;SDS011;62678;52.130;5.584;2023-03-13T00:31:56;26.35;;;6.03;;
11962;SDS011;62678;52.130;5.584;2023-03-13T00:34:24;32.58;;;6.50;;
11962;SDS011;62678;52.130;5.584;2023-03-13T00:36:51;31.42;;;6.45;;
11962;SDS011;62678;52.130;5.584;2023-03-13T00:39:19;27.98;;;6.20;;
11962;SDS011;62678;52.130;5.584;2023-03-13T00:41:46;31.27;;;6.75;;
11962;SDS011;62678;52.130;5.584;2023-03-13T00:44:15;45.30;;;6.85;;
11962;SDS011;62678;52.130;5.584;2023-03-13T00:46:41;31.13;;;6.68;;
11962;SDS011;62678;52.130;5.584;2023-03-13T00:49:08;37.67;;;7.13;;
11962;SDS011;62678;52.130;5.584;2023-03-13T00:51:36;37.53;;;7.80;;
11962;SDS011;62678;52.130;5.584;2023-03-13T00:54:03;38.03;;;7.22;;
11962;SDS011;62678;52.130;5.584;2023-03-13T00:56:30;41.58;;;7.32;;
11962;SDS011;62678;52.130;5.584;2023-03-13T00:58:58;42.95;;;7.47;;
11962;SDS011;62678;52.130;5.584;2023-03-13T01:01:27;39.72;;;7.07;;
11962;SDS011;62678;52.130;5.584;2023-03-13T01:03:57;41.38;;;7.53;;
11962;SDS011;62678;52.130;5.584;2023-03-13T01:06:26;38.38;;;7.28;;
11962;SDS011;62678;52.130;5.584;2023-03-13T01:08:56;40.03;;;7.95;;
11962;SDS011;62678;52.130;5.584;2023-03-13T01:11:24;41.72;;;8.38;;
11962;SDS011;62678;52.130;5.584;2023-03-13T01:13:52;35.40;;;7.78;;
11962;SDS011;62678;52.130;5.584;2023-03-13T01:16:21;35.30;;;8.35;;
11962;SDS011;62678;52.130;5.584;2023-03-13T01:18:49;39.00;;;7.97;;
11962;SDS011;62678;52.130;5.584;2023-03-13T01:21:18;38.38;;;8.70;;
11962;SDS011;62678;52.130;5.584;2023-03-13T01:23:47;34.55;;;7.68;;
11962;SDS011;62678;52.130;5.584;2023-03-13T01:26:16;38.17;;;8.13;;
11962;SDS011;62678;52.130;5.584;2023-03-13T01:28:43;31.40;;;8.25;;
11962;SDS011;62678;52.130;5.584;2023-03-13T01:31:11;27.95;;;7.90;;
11962;SDS011;62678;52.130;5.584;2023-03-13T01:33:38;29.35;;;7.65;;
11962;SDS011;62678;52.130;5.584;2023-03-13T01:36:05;28.20;;;8.07;;
11962;SDS011;62678;52.130;5.584;2023-03-13T01:38:33;31.27;;;8.48;;
11962;SDS011;62678;52.130;5.584;2023-03-13T01:41:01;27.27;;;7.90;;
11962;SDS011;62678;52.130;5.584;2023-03-13T01:43:31;22.95;;;7.85;;
11962;SDS011;62678;52.130;5.584;2023-03-13T01:46:00;26.05;;;7.20;;
11962;SDS011;62678;52.130;5.584;2023-03-13T01:48:34;23.02;;;7.78;;
11962;SDS011;62678;52.130;5.584;2023-03-13T01:51:06;26.33;;;7.60;;
11962;SDS011;62678;52.130;5.584;2023-03-13T01:53:36;19.55;;;7.65;;
11962;SDS011;62678;52.130;5.584;2023-03-13T01:56:07;22.38;;;7.80;;
11962;SDS011;62678;52.130;5.584;2023-03-13T01:58:40;18.73;;;7.78;;
11962;SDS011;62678;52.130;5.584;2023-03-13T02:01:07;25.55;;;7.97;;
11962;SDS011;62678;52.130;5.584;2023-03-13T02:03:35;25.42;;;7.90;;
11962;SDS011;62678;52.130;5.584;2023-03-13T02:06:03;20.50;;;7.13;;
11962;SDS011;62678;52.130;5.584;2023-03-13T02:08:33;18.45;;;7.20;;
11962;SDS011;62678;52.130;5.584;2023-03-13T02:11:04;23.67;;;7.60;;
11962;SDS011;62678;52.130;5.584;2023-03-13T02:13:40;20.17;;;7.90;;
11962;SDS011;62678;52.130;5.584;2023-03-13T02:16:07;24.48;;;7.55;;
11962;SDS011;62678;52.130;5.584;2023-03-13T02:18:35;22.73;;;8.25;;
11962;SDS011;62678;52.130;5.584;2023-03-13T02:21:07;19.67;;;8.60;;
11962;SDS011;62678;52.130;5.584;2023-03-13T02:23:40;18.65;;;8.90;;
11962;SDS011;62678;52.130;5.584;2023-03-13T02:26:13;24.33;;;10.48;;
11962;SDS011;62678;52.130;5.584;2023-03-13T02:28:41;21.83;;;10.75;;
11962;SDS011;62678;52.130;5.584;2023-03-13T02:31:08;21.65;;;10.40;;
11962;SDS011;62678;52.130;5.584;2023-03-13T02:33:36;22.27;;;11.40;;
11962;SDS011;62678;52.130;5.584;2023-03-13T02:36:06;25.90;;;10.70;;
11962;SDS011;62678;52.130;5.584;2023-03-13T02:38:34;24.17;;;11.60;;
11962;SDS011;62678;52.130;5.584;2023-03-13T02:41:04;26.65;;;12.07;;
11962;SDS011;62678;52.130;5.584;2023-03-13T02:43:34;26.52;;;12.55;;
11962;SDS011;62678;52.130;5.584;2023-03-13T02:46:03;26.73;;;11.85;;
11962;SDS011;62678;52.130;5.584;2023-03-13T02:48:32;21.95;;;12.13;;
11962;SDS011;62678;52.130;5.584;2023-03-13T02:51:01;26.65;;;12.32;;
11962;SDS011;62678;52.130;5.584;2023-03-13T02:53:31;24.73;;;12.50;;
11962;SDS011;62678;52.130;5.584;2023-03-13T02:55:58;25.80;;;12.38;;
11962;SDS011;62678;52.130;5.584;2023-03-13T02:58:25;23.85;;;12.18;;
11962;SDS011;62678;52.130;5.584;2023-03-13T03:00:53;24.88;;;12.90;;
11962;SDS011;62678;52.130;5.584;2023-03-13T03:03:20;24.42;;;13.70;;
11962;SDS011;62678;52.130;5.584;2023-03-13T03:05:47;25.42;;;14.32;;
11962;SDS011;62678;52.130;5.584;2023-03-13T03:08:14;25.75;;;15.25;;
11962;SDS011;62678;52.130;5.584;2023-03-13T03:10:41;33.83;;;16.00;;
11962;SDS011;62678;52.130;5.584;2023-03-13T03:13:07;26.25;;;15.57;;
11962;SDS011;62678;52.130;5.584;2023-03-13T03:15:34;29.60;;;17.27;;
11962;SDS011;62678;52.130;5.584;2023-03-13T03:18:02;31.92;;;17.67;;
11962;SDS011;62678;52.130;5.584;2023-03-13T03:20:29;32.08;;;17.88;;
11962;SDS011;62678;52.130;5.584;2023-03-13T03:22:56;30.17;;;18.65;;
11962;SDS011;62678;52.130;5.584;2023-03-13T03:25:23;33.83;;;18.08;;
11962;SDS011;62678;52.130;5.584;2023-03-13T03:27:50;32.42;;;19.40;;
11962;SDS011;62678;52.130;5.584;2023-03-13T03:30:17;33.30;;;18.30;;
11962;SDS011;62678;52.130;5.584;2023-03-13T03:32:43;34.20;;;19.73;;
11962;SDS011;62678;52.130;5.584;2023-03-13T03:35:12;28.10;;;19.55;;
11962;SDS011;62678;52.130;5.584;2023-03-13T03:37:38;34.25;;;20.33;;
11962;SDS011;62678;52.130;5.584;2023-03-13T03:40:06;30.33;;;19.77;;
11962;SDS011;62678;52.130;5.584;2023-03-13T03:42:33;32.13;;;19.25;;
11962;SDS011;62678;52.130;5.584;2023-03-13T03:45:00;34.45;;;20.08;;
11962;SDS011;62678;52.130;5.584;2023-03-13T03:47:27;26.52;;;19.13;;
11962;SDS011;62678;52.130;5.584;2023-03-13T03:49:54;30.75;;;19.75;;
11962;SDS011;62678;52.130;5.584;2023-03-13T03:52:22;33.55;;;19.73;;
11962;SDS011;62678;52.130;5.584;2023-03-13T03:54:49;27.92;;;18.85;;
11962;SDS011;62678;52.130;5.584;2023-03-13T03:57:16;27.88;;;18.35;;
11962;SDS011;62678;52.130;5.584;2023-03-13T03:59:43;28.77;;;19.20;;
11962;SDS011;62678;52.130;5.584;2023-03-13T04:02:10;27.70;;;18.98;;
11962;SDS011;62678;52.130;5.584;2023-03-13T04:04:37;32.20;;;18.65;;
11962;SDS011;62678;52.130;5.584;2023-03-13T04:07:03;27.63;;;18.83;;
11962;SDS011;62678;52.130;5.584;2023-03-13T04:09:32;31.02;;;19.17;;
11962;SDS011;62678;52.130;5.584;2023-03-13T04:11:58;28.73;;;19.40;;
11962;SDS011;62678;52.130;5.584;2023-03-13T04:14:25;28.08;;;19.00;;
11962;SDS011;62678;52.130;5.584;2023-03-13T04:16:52;24.85;;;19.05;;
11962;SDS011;62678;52.130;5.584;2023-03-13T04:19:19;26.15;;;18.20;;
11962;SDS011;62678;52.130;5.584;2023-03-13T04:21:46;27.25;;;17.30;;
11962;SDS011;62678;52.130;5.584;2023-03-13T04:24:13;24.88;;;15.95;;
11962;SDS011;62678;52.130;5.584;2023-03-13T04:26:41;22.13;;;17.05;;
11962;SDS011;62678;52.130;5.584;2023-03-13T04:29:08;20.95;;;16.25;;
11962;SDS011;62678;52.130;5.584;2023-03-13T04:31:35;21.52;;;16.40;;
11962;SDS011;62678;52.130;5.584;2023-03-13T04:34:02;22.58;;;15.80;;
11962;SDS011;62678;52.130;5.584;2023-03-13T04:36:29;24.08;;;17.05;;
11962;SDS011;62678;52.130;5.584;2023-03-13T04:38:56;23.05;;;16.75;;
11962;SDS011;62678;52.130;5.584;2023-03-13T04:41:22;19.35;;;16.17;;
11962;SDS011;62678;52.130;5.584;2023-03-13T04:43:51;18.63;;;15.10;;
11962;SDS011;62678;52.130;5.584;2023-03-13T04:46:18;23.83;;;16.23;;
11962;SDS011;62678;52.130;5.584;2023-03-13T04:48:45;19.02;;;15.25;;
11962;SDS011;62678;52.130;5.584;2023-03-13T04:51:11;18.27;;;14.52;;
11962;SDS011;62678;52.130;5.584;2023-03-13T04:53:38;19.13;;;13.93;;
11962;SDS011;62678;52.130;5.584;2023-03-13T04:56:05;20.13;;;13.80;;
11962;SDS011;62678;52.130;5.584;2023-03-13T04:58:32;18.00;;;12.85;;
11962;SDS011;62678;52.130;5.584;2023-03-13T05:01:01;16.10;;;13.10;;
11962;SDS011;62678;52.130;5.584;2023-03-13T05:03:27;15.13;;;11.48;;
11962;SDS011;62678;52.130;5.584;2023-03-13T05:05:54;18.25;;;11.40;;
11962;SDS011;62678;52.130;5.584;2023-03-13T05:08:21;15.73;;;11.20;;
11962;SDS011;62678;52.130;5.584;2023-03-13T05:10:48;14.93;;;10.07;;
11962;SDS011;62678;52.130;5.584;2023-03-13T05:13:15;13.27;;;9.25;;
11962;SDS011;62678;52.130;5.584;2023-03-13T05:15:41;16.25;;;10.43;;
11962;SDS011;62678;52.130;5.584;2023-03-13T05:18:10;16.75;;;9.10;;
11962;SDS011;62678;52.130;5.584;2023-03-13T05:20:37;13.65;;;7.88;;
11962;SDS011;62678;52.130;5.584;2023-03-13T05:23:04;11.00;;;6.80;;
11962;SDS011;62678;52.130;5.584;2023-03-13T05:25:31;11.95;;;7.57;;
11962;SDS011;62678;52.130;5.584;2023-03-13T05:27:58;12.20;;;7.28;;
11962;SDS011;62678;52.130;5.584;2023-03-13T05:30:25;10.50;;;6.22;;
11962;SDS011;62678;52.130;5.584;2023-03-13T05:32:52;12.65;;;6.40;;
11962;SDS011;62678;52.130;5.584;2023-03-13T05:35:20;12.48;;;6.00;;
11962;SDS011;62678;52.130;5.584;2023-03-13T05:37:47;14.93;;;6.40;;
11962;SDS011;62678;52.130;5.584;2023-03-13T05:40:14;10.75;;;5.50;;
11962;SDS011;62678;52.130;5.584;2023-03-13T05:42:41;10.95;;;5.38;;
11962;SDS011;62678;52.130;5.584;2023-03-13T05:45:08;12.15;;;4.47;;
11962;SDS011;62678;52.130;5.584;2023-03-13T05:47:36;9.15;;;4.68;;
11962;SDS011;62678;52.130;5.584;2023-03-13T05:50:04;12.18;;;4.47;;
11962;SDS011;62678;52.130;5.584;2023-03-13T05:52:33;10.10;;;4.10;;
11962;SDS011;62678;52.130;5.584;2023-03-13T05:55:00;13.27;;;4.25;;
11962;SDS011;62678;52.130;5.584;2023-03-13T05:57:26;9.70;;;4.20;;
11962;SDS011;62678;52.130;5.584;2023-03-13T05:59:53;9.20;;;4.20;;
11962;SDS011;62678;52.130;5.584;2023-03-13T06:02:20;8.57;;;3.85;;
11962;SDS011;62678;52.130;5.584;2023-03-13T06:04:47;9.30;;;4.03;;
11962;SDS011;62678;52.130;5.584;2023-03-13T06:07:14;11.13;;;3.47;;
11962;SDS011;62678;52.130;5.584;2023-03-13T06:09:42;9.48;;;3.40;;
11962;SDS011;62678;52.130;5.584;2023-03-13T06:12:09;15.38;;;4.25;;
11962;SDS011;62678;52.130;5.584;2023-03-13T06:14:37;7.68;;;3.83;;
11962;SDS011;62678;52.130;5.584;2023-03-13T06:17:04;10.50;;;3.63;;
11962;SDS011;62678;52.130;5.584;2023-03-13T06:19:31;13.75;;;4.55;;
11962;SDS011;62678;52.130;5.584;2023-03-13T06:21:58;13.25;;;4.00;;
11962;SDS011;62678;52.130;5.584;2023-03-13T06:24:25;9.82;;;4.28;;
11962;SDS011;62678;52.130;5.584;2023-03-13T06:26:53;9.95;;;4.13;;
11962;SDS011;62678;52.130;5.584;2023-03-13T06:29:21;11.30;;;3.85;;
11962;SDS011;62678;52.130;5.584;2023-03-13T06:31:48;9.25;;;3.80;;
11962;SDS011;62678;52.130;5.584;2023-03-13T06:34:16;10.57;;;4.28;;
11962;SDS011;62678;52.130;5.584;2023-03-13T06:36:43;11.05;;;3.85;;
11962;SDS011;62678;52.130;5.584;2023-03-13T06:39:10;8.75;;;3.72;;
11962;SDS011;62678;52.130;5.584;2023-03-13T06:41:37;12.82;;;3.90;;
11962;SDS011;62678;52.130;5.584;2023-03-13T06:44:05;11.15;;;3.90;;
11962;SDS011;62678;52.130;5.584;2023-03-13T06:46:32;11.00;;;4.30;;
11962;SDS011;62678;52.130;5.584;2023-03-13T06:48:59;12.63;;;4.10;;
11962;SDS011;62678;52.130;5.584;2023-03-13T06:51:28;8.30;;;3.58;;
11962;SDS011;62678;52.130;5.584;2023-03-13T06:53:55;8.13;;;3.42;;
11962;SDS011;62678;52.130;5.584;2023-03-13T06:56:22;8.88;;;3.45;;
11962;SDS011;62678;52.130;5.584;2023-03-13T06:58:49;7.38;;;3.85;;
11962;SDS011;62678;52.130;5.584;2023-03-13T07:01:17;11.38;;;3.38;;
11962;SDS011;62678;52.130;5.584;2023-03-13T07:03:45;9.20;;;3.58;;
11962;SDS011;62678;52.130;5.584;2023-03-13T07:06:12;7.30;;;3.15;;
11962;SDS011;62678;52.130;5.584;2023-03-13T07:08:40;11.10;;;3.85;;
11962;SDS011;62678;52.130;5.584;2023-03-13T07:11:08;8.32;;;3.28;;
11962;SDS011;62678;52.130;5.584;2023-03-13T07:13:36;9.00;;;3.00;;
11962;SDS011;62678;52.130;5.584;2023-03-13T07:16:03;9.15;;;3.53;;
11962;SDS011;62678;52.130;5.584;2023-03-13T07:18:33;9.70;;;3.20;;
11962;SDS011;62678;52.130;5.584;2023-03-13T07:21:00;9.82;;;3.10;;
11962;SDS011;62678;52.130;5.584;2023-03-13T07:23:30;9.77;;;3.78;;
11962;SDS011;62678;52.130;5.584;2023-03-13T07:25:59;9.00;;;3.20;;
11962;SDS011;62678;52.130;5.584;2023-03-13T07:28:27;12.20;;;3.80;;
11962;SDS011;62678;52.130;5.584;2023-03-13T07:31:01;10.77;;;3.47;;
11962;SDS011;62678;52.130;5.584;2023-03-13T07:33:30;9.75;;;3.20;;
11962;SDS011;62678;52.130;5.584;2023-03-13T07:35:58;12.68;;;3.70;;
11962;SDS011;62678;52.130;5.584;2023-03-13T07:38:26;12.00;;;3.63;;
11962;SDS011;62678;52.130;5.584;2023-03-13T07:40:53;7.55;;;3.25;;
11962;SDS011;62678;52.130;5.584;2023-03-13T07:43:22;9.93;;;3.53;;
11962;SDS011;62678;52.130;5.584;2023-03-13T07:45:50;9.55;;;3.67;;
11962;SDS011;62678;52.130;5.584;2023-03-13T07:48:21;10.88;;;3.92;;
11962;SDS011;62678;52.130;5.584;2023-03-13T07:50:50;10.20;;;4.10;;
11962;SDS011;62678;52.130;5.584;2023-03-13T07:53:20;9.98;;;4.18;;
11962;SDS011;62678;52.130;5.584;2023-03-13T07:55:55;13.32;;;4.75;;
11962;SDS011;62678;52.130;5.584;2023-03-13T07:58:24;10.23;;;4.28;;
11962;SDS011;62678;52.130;5.584;2023-03-13T08:00:53;10.10;;;4.30;;
11962;SDS011;62678;52.130;5.584;2023-03-13T08:03:20;13.45;;;4.88;;
11962;SDS011;62678;52.130;5.584;2023-03-13T08:05:56;9.95;;;4.88;;
11962;SDS011;62678;52.130;5.584;2023-03-13T08:08:25;8.63;;;4.43;;
11962;SDS011;62678;52.130;5.584;2023-03-13T08:10:53;12.75;;;5.03;;
11962;SDS011;62678;52.130;5.584;2023-03-13T08:13:24;13.32;;;4.18;;
11962;SDS011;62678;52.130;5.584;2023-03-13T08:15:51;9.88;;;4.47;;
11962;SDS011;62678;52.130;5.584;2023-03-13T08:18:18;14.98;;;4.15;;
11962;SDS011;62678;52.130;5.584;2023-03-13T08:20:45;11.05;;;4.18;;
11962;SDS011;62678;52.130;5.584;2023-03-13T08:23:12;10.25;;;4.50;;
11962;SDS011;62678;52.130;5.584;2023-03-13T08:25:41;13.27;;;4.55;;
11962;SDS011;62678;52.130;5.584;2023-03-13T08:28:08;10.73;;;5.03;;
11962;SDS011;62678;52.130;5.584;2023-03-13T08:30:35;12.63;;;4.85;;
11962;SDS011;62678;52.130;5.584;2023-03-13T08:33:02;9.20;;;4.35;;
11962;SDS011;62678;52.130;5.584;2023-03-13T08:35:29;7.53;;;4.10;;
11962;SDS011;62678;52.130;5.584;2023-03-13T08:37:56;11.55;;;4.28;;
11962;SDS011;62678;52.130;5.584;2023-03-13T08:40:23;8.52;;;4.50;;
11962;SDS011;62678;52.130;5.584;2023-03-13T08:42:52;9.50;;;4.32;;
11962;SDS011;62678;52.130;5.584;2023-03-13T08:45:19;14.32;;;3.92;;
11962;SDS011;62678;52.130;5.584;2023-03-13T08:47:48;8.52;;;3.90;;
11962;SDS011;62678;52.130;5.584;2023-03-13T08:50:20;9.98;;;3.60;;
11962;SDS011;62678;52.130;5.584;2023-03-13T08:52:47;9.65;;;3.30;;
11962;SDS011;62678;52.130;5.584;2023-03-13T08:55:15;6.93;;;2.80;;
11962;SDS011;62678;52.130;5.584;2023-03-13T08:57:42;7.55;;;3.17;;
11962;SDS011;62678;52.130;5.584;2023-03-13T09:00:11;5.95;;;2.92;;
11962;SDS011;62678;52.130;5.584;2023-03-13T09:02:39;8.68;;;3.13;;
11962;SDS011;62678;52.130;5.584;2023-03-13T09:05:06;9.63;;;2.85;;
11962;SDS011;62678;52.130;5.584;2023-03-13T09:07:34;8.98;;;2.80;;
11962;SDS011;62678;52.130;5.584;2023-03-13T09:10:01;8.68;;;3.00;;
11962;SDS011;62678;52.130;5.584;2023-03-13T09:12:28;9.65;;;2.88;;
11962;SDS011;62678;52.130;5.584;2023-03-13T09:14:55;10.45;;;3.65;;
11962;SDS011;62678;52.130;5.584;2023-03-13T09:17:24;9.20;;;2.50;;
11962;SDS011;62678;52.130;5.584;2023-03-13T09:19:51;5.60;;;2.70;;
11962;SDS011;62678;52.130;5.584;2023-03-13T09:22:18;7.28;;;2.53;;
11962;SDS011;62678;52.130;5.584;2023-03-13T09:24:45;6.75;;;1.80;;
11962;SDS011;62678;52.130;5.584;2023-03-13T09:27:13;7.85;;;2.30;;
11962;SDS011;62678;52.130;5.584;2023-03-13T09:29:39;7.72;;;2.30;;
11962;SDS011;62678;52.130;5.584;2023-03-13T09:32:08;6.38;;;1.98;;
11962;SDS011;62678;52.130;5.584;2023-03-13T09:34:37;9.02;;;2.13;;
11962;SDS011;62678;52.130;5.584;2023-03-13T09:37:04;10.20;;;2.22;;
11962;SDS011;62678;52.130;5.584;2023-03-13T09:39:32;7.30;;;2.00;;
11962;SDS011;62678;52.130;5.584;2023-03-13T09:42:01;7.75;;;1.77;;
11962;SDS011;62678;52.130;5.584;2023-03-13T09:44:35;8.48;;;2.30;;
11962;SDS011;62678;52.130;5.584;2023-03-13T09:47:09;4.75;;;1.77;;
11962;SDS011;62678;52.130;5.584;2023-03-13T09:49:43;3.63;;;1.40;;
11962;SDS011;62678;52.130;5.584;2023-03-13T09:52:15;4.75;;;1.67;;
11962;SDS011;62678;52.130;5.584;2023-03-13T09:54:45;5.72;;;1.88;;
11962;SDS011;62678;52.130;5.584;2023-03-13T09:57:18;5.13;;;1.90;;
11962;SDS011;62678;52.130;5.584;2023-03-13T09:59:50;5.45;;;2.00;;
11962;SDS011;62678;52.130;5.584;2023-03-13T10:02:29;6.85;;;2.25;;
11962;SDS011;62678;52.130;5.584;2023-03-13T10:05:09;8.65;;;2.55;;
11962;SDS011;62678;52.130;5.584;2023-03-13T10:07:41;8.43;;;2.40;;
11962;SDS011;62678;52.130;5.584;2023-03-13T10:10:15;5.90;;;1.77;;
11962;SDS011;62678;52.130;5.584;2023-03-13T10:12:45;4.22;;;1.67;;
11962;SDS011;62678;52.130;5.584;2023-03-13T10:18:09;5.68;;;1.55;;
11962;SDS011;62678;52.130;5.584;2023-03-13T10:20:41;5.45;;;1.80;;
11962;SDS011;62678;52.130;5.584;2023-03-13T10:23:11;4.03;;;1.40;;
11962;SDS011;62678;52.130;5.584;2023-03-13T10:25:41;3.42;;;1.30;;
11962;SDS011;62678;52.130;5.584;2023-03-13T10:28:09;3.97;;;1.48;;
11962;SDS011;62678;52.130;5.584;2023-03-13T10:30:37;2.47;;;1.10;;
11962;SDS011;62678;52.130;5.584;2023-03-13T10:33:18;5.85;;;1.30;;
11962;SDS011;62678;52.130;5.584;2023-03-13T10:35:59;3.55;;;1.38;;
11962;SDS011;62678;52.130;5.584;2023-03-13T10:38:29;5.70;;;1.42;;
11962;SDS011;62678;52.130;5.584;2023-03-13T10:41:17;6.30;;;1.83;;
11962;SDS011;62678;52.130;5.584;2023-03-13T10:43:50;3.10;;;1.60;;
11962;SDS011;62678;52.130;5.584;2023-03-13T10:46:28;5.90;;;1.98;;
11962;SDS011;62678;52.130;5.584;2023-03-13T10:48:56;3.80;;;1.33;;
11962;SDS011;62678;52.130;5.584;2023-03-13T10:51:32;3.90;;;1.40;;
11962;SDS011;62678;52.130;5.584;2023-03-13T10:54:11;5.97;;;1.58;;
11962;SDS011;62678;52.130;5.584;2023-03-13T10:56:40;4.10;;;1.45;;
11962;SDS011;62678;52.130;5.584;2023-03-13T10:59:16;4.97;;;1.70;;
11962;SDS011;62678;52.130;5.584;2023-03-13T11:01:47;6.13;;;1.83;;
11962;SDS011;62678;52.130;5.584;2023-03-13T11:04:19;8.55;;;1.60;;
11962;SDS011;62678;52.130;5.584;2023-03-13T11:07:00;4.60;;;1.25;;
11962;SDS011;62678;52.130;5.584;2023-03-13T11:09:29;4.47;;;1.60;;
11962;SDS011;62678;52.130;5.584;2023-03-13T11:12:00;4.80;;;1.50;;
11962;SDS011;62678;52.130;5.584;2023-03-13T11:14:30;4.72;;;1.50;;
11962;SDS011;62678;52.130;5.584;2023-03-13T11:16:59;6.40;;;1.65;;
11962;SDS011;62678;52.130;5.584;2023-03-13T11:19:41;4.13;;;1.38;;
11962;SDS011;62678;52.130;5.584;2023-03-13T11:22:24;5.65;;;1.60;;
11962;SDS011;62678;52.130;5.584;2023-03-13T11:25:07;4.75;;;1.50;;
11962;SDS011;62678;52.130;5.584;2023-03-13T11:27:45;3.05;;;1.40;;
11962;SDS011;62678;52.130;5.584;2023-03-13T11:30:22;5.75;;;1.40;;
11962;SDS011;62678;52.130;5.584;2023-03-13T11:33:21;6.60;;;1.40;;
11962;SDS011;62678;52.130;5.584;2023-03-13T11:35:57;6.63;;;1.30;;
11962;SDS011;62678;52.130;5.584;2023-03-13T11:38:31;5.50;;;1.55;;
11962;SDS011;62678;52.130;5.584;2023-03-13T11:41:04;5.68;;;1.60;;
11962;SDS011;62678;52.130;5.584;2023-03-13T11:43:42;4.63;;;1.35;;
11962;SDS011;62678;52.130;5.584;2023-03-13T11:46:25;2.83;;;1.45;;
11962;SDS011;62678;52.130;5.584;2023-03-13T11:51:54;3.10;;;1.42;;
11962;SDS011;62678;52.130;5.584;2023-03-13T11:54:36;4.10;;;1.30;;
11962;SDS011;62678;52.130;5.584;2023-03-13T11:57:14;4.35;;;1.38;;
11962;SDS011;62678;52.130;5.584;2023-03-13T11:59:47;4.95;;;1.55;;
11962;SDS011;62678;52.130;5.584;2023-03-13T12:02:27;3.50;;;1.30;;
11962;SDS011;62678;52.130;5.584;2023-03-13T12:05:01;3.95;;;1.95;;
11962;SDS011;62678;52.130;5.584;2023-03-13T12:07:35;4.13;;;1.20;;
11962;SDS011;62678;52.130;5.584;2023-03-13T12:10:10;3.28;;;1.00;;
11962;SDS011;62678;52.130;5.584;2023-03-13T12:12:42;2.88;;;1.17;;
11962;SDS011;62678;52.130;5.584;2023-03-13T12:15:17;3.17;;;1.13;;
11962;SDS011;62678;52.130;5.584;2023-03-13T12:17:48;5.13;;;1.52;;
11962;SDS011;62678;52.130;5.584;2023-03-13T12:20:21;3.85;;;1.08;;
11962;SDS011;62678;52.130;5.584;2023-03-13T12:22:54;6.53;;;1.38;;
11962;SDS011;62678;52.130;5.584;2023-03-13T12:25:31;6.97;;;1.40;;
11962;SDS011;62678;52.130;5.584;2023-03-13T12:28:03;8.02;;;1.30;;
11962;SDS011;62678;52.130;5.584;2023-03-13T12:30:42;7.07;;;1.40;;
11962;SDS011;62678;52.130;5.584;2023-03-13T12:33:15;6.93;;;1.50;;
11962;SDS011;62678;52.130;5.584;2023-03-13T12:35:50;7.63;;;1.52;;
11962;SDS011;62678;52.130;5.584;2023-03-13T12:38:27;6.80;;;1.65;;
11962;SDS011;62678;52.130;5.584;2023-03-13T12:41:07;6.28;;;1.85;;
11962;SDS011;62678;52.130;5.584;2023-03-13T12:43:44;7.03;;;1.80;;
11962;SDS011;62678;52.130;5.584;2023-03-13T12:46:20;5.28;;;1.35;;
11962;SDS011;62678;52.130;5.584;2023-03-13T12:49:06;6.03;;;2.10;;
11962;SDS011;62678;52.130;5.584;2023-03-13T12:52:05;11.15;;;2.22;;
11962;SDS011;62678;52.130;5.584;2023-03-13T12:54:49;9.02;;;2.17;;
11962;SDS011;62678;52.130;5.584;2023-03-13T13:00:29;9.07;;;1.70;;
11962;SDS011;62678;52.130;5.584;2023-03-13T13:03:01;7.60;;;2.15;;
11962;SDS011;62678;52.130;5.584;2023-03-13T13:05:35;7.68;;;2.10;;
11962;SDS011;62678;52.130;5.584;2023-03-13T13:08:02;7.13;;;1.67;;
11962;SDS011;62678;52.130;5.584;2023-03-13T13:10:30;8.15;;;1.75;;
11962;SDS011;62678;52.130;5.584;2023-03-13T13:16:00;7.47;;;1.98;;
11962;SDS011;62678;52.130;5.584;2023-03-13T13:18:30;6.63;;;1.67;;
11962;SDS011;62678;52.130;5.584;2023-03-13T13:23:51;10.25;;;2.10;;
11962;SDS011;62678;52.130;5.584;2023-03-13T13:35:18;8.23;;;1.77;;
11962;SDS011;62678;52.130;5.584;2023-03-13T13:37:48;8.27;;;2.10;;
11962;SDS011;62678;52.130;5.584;2023-03-13T13:40:17;8.43;;;1.90;;
11962;SDS011;62678;52.130;5.584;2023-03-13T13:42:51;11.65;;;2.40;;
11962;SDS011;62678;52.130;5.584;2023-03-13T13:45:26;6.53;;;1.77;;
11962;SDS011;62678;52.130;5.584;2023-03-13T13:51:20;7.05;;;1.70;;
11962;SDS011;62678;52.130;5.584;2023-03-13T13:53:50;9.27;;;2.13;;
11962;SDS011;62678;52.130;5.584;2023-03-13T13:56:29;10.02;;;2.30;;
11962;SDS011;62678;52.130;5.584;2023-03-13T13:59:31;12.07;;;2.42;;
11962;SDS011;62678;52.130;5.584;2023-03-13T14:02:12;13.25;;;2.70;;
11962;SDS011;62678;52.130;5.584;2023-03-13T14:04:47;10.02;;;2.17;;
11962;SDS011;62678;52.130;5.584;2023-03-13T14:07:17;11.43;;;3.10;;
11962;SDS011;62678;52.130;5.584;2023-03-13T14:09:52;12.30;;;2.85;;
11962;SDS011;62678;52.130;5.584;2023-03-13T14:12:26;15.90;;;3.20;;
11962;SDS011;62678;52.130;5.584;2023-03-13T14:17:50;14.70;;;3.25;;
11962;SDS011;62678;52.130;5.584;2023-03-13T14:20:24;12.32;;;3.25;;
11962;SDS011;62678;52.130;5.584;2023-03-13T14:22:54;12.15;;;2.97;;
11962;SDS011;62678;52.130;5.584;2023-03-13T14:25:23;15.23;;;3.00;;
11962;SDS011;62678;52.130;5.584;2023-03-13T14:27:51;15.95;;;2.92;;
11962;SDS011;62678;52.130;5.584;2023-03-13T14:30:19;14.68;;;2.80;;
11962;SDS011;62678;52.130;5.584;2023-03-13T14:32:47;11.45;;;2.83;;
11962;SDS011;62678;52.130;5.584;2023-03-13T14:35:16;13.27;;;3.08;;
11962;SDS011;62678;52.130;5.584;2023-03-13T14:37:47;11.50;;;2.75;;
11962;SDS011;62678;52.130;5.584;2023-03-13T14:40:25;16.08;;;3.45;;
11962;SDS011;62678;52.130;5.584;2023-03-13T14:42:54;13.98;;;2.65;;
11962;SDS011;62678;52.130;5.584;2023-03-13T14:45:24;13.50;;;2.80;;
11962;SDS011;62678;52.130;5.584;2023-03-13T14:47:54;15.73;;;2.95;;
11962;SDS011;62678;52.130;5.584;2023-03-13T14:50:27;10.10;;;2.85;;
11962;SDS011;62678;52.130;5.584;2023-03-13T14:52:56;13.07;;;3.15;;
11962;SDS011;62678;52.130;5.584;2023-03-13T14:55:33;16.77;;;3.55;;
11962;SDS011;62678;52.130;5.584;2023-03-13T14:58:05;20.92;;;3.63;;
11962;SDS011;62678;52.130;5.584;2023-03-13T15:00:51;13.35;;;3.17;;
11962;SDS011;62678;52.130;5.584;2023-03-13T15:03:19;13.40;;;2.90;;
11962;SDS011;62678;52.130;5.584;2023-03-13T15:06:00;16.67;;;3.50;;
11962;SDS011;62678;52.130;5.584;2023-03-13T15:08:46;14.80;;;3.20;;
11962;SDS011;62678;52.130;5.584;2023-03-13T15:11:20;15.90;;;3.05;;
11962;SDS011;62678;52.130;5.584;2023-03-13T15:13:51;20.10;;;3.53;;
11962;SDS011;62678;52.130;5.584;2023-03-13T15:16:19;12.43;;;2.65;;
11962;SDS011;62678;52.130;5.584;2023-03-13T15:18:47;12.15;;;2.88;;
11962;SDS011;62678;52.130;5.584;2023-03-13T15:21:18;9.98;;;2.80;;
11962;SDS011;62678;52.130;5.584;2023-03-13T15:23:49;13.13;;;2.72;;